Terminal Aerodrome Forecast
Issued by NWS Sterling, VA

Home | Current Version | Previous Version | Text Only | Print | Product List | Glossary On
Versions: 1 2 3 4 5 6 7 8 9 10 11 12 13 14 15 16 17 18 19 20 21 22 23 24 25
000
FTUS41 KLWX 302320
TAFCHO
TAF
KCHO 302320Z 0100/0124 VRB03KT 5SM -RA BR SCT008 OVC015
     FM010300 12005KT 3SM -RA BR BKN008 OVC015
     FM010600 15007KT 3SM RA BR BKN003 OVC015
     FM011200 15005KT 5SM -RA BR BKN008 OVC015
     FM011500 18006KT P6SM BKN008 OVC015
     FM011800 18006KT P6SM SCT008 BKN015 OVC050
     FM012100 VRB04KT 3SM SHRA BKN025 OVC050=

USA.gov is the U.S. government's official web portal to all federal, state and local government web resources and services.